sensor_id;sensor_type;location;lat;lon;timestamp;P1;durP1;ratioP1;P2;durP2;ratioP2
22764;SDS011;11549;50.852;3.816;2023-01-04T00:02:01;7.82;;;4.28;;
22764;SDS011;11549;50.852;3.816;2023-01-04T00:04:30;9.05;;;4.13;;
22764;SDS011;11549;50.852;3.816;2023-01-04T00:06:58;6.90;;;3.90;;
22764;SDS011;11549;50.852;3.816;2023-01-04T00:09:27;9.85;;;3.95;;
22764;SDS011;11549;50.852;3.816;2023-01-04T00:11:55;10.52;;;3.90;;
22764;SDS011;11549;50.852;3.816;2023-01-04T00:14:25;9.38;;;4.40;;
22764;SDS011;11549;50.852;3.816;2023-01-04T00:16:53;9.32;;;4.45;;
22764;SDS011;11549;50.852;3.816;2023-01-04T00:19:22;11.05;;;4.35;;
22764;SDS011;11549;50.852;3.816;2023-01-04T00:21:50;7.40;;;4.30;;
22764;SDS011;11549;50.852;3.816;2023-01-04T00:24:19;8.73;;;4.60;;
22764;SDS011;11549;50.852;3.816;2023-01-04T00:26:47;9.43;;;4.50;;
22764;SDS011;11549;50.852;3.816;2023-01-04T00:29:16;12.15;;;4.72;;
22764;SDS011;11549;50.852;3.816;2023-01-04T00:31:46;11.07;;;5.15;;
22764;SDS011;11549;50.852;3.816;2023-01-04T00:34:15;8.90;;;4.82;;
22764;SDS011;11549;50.852;3.816;2023-01-04T00:36:44;9.10;;;4.85;;
22764;SDS011;11549;50.852;3.816;2023-01-04T00:39:13;8.68;;;5.30;;
22764;SDS011;11549;50.852;3.816;2023-01-04T00:41:43;8.27;;;5.35;;
22764;SDS011;11549;50.852;3.816;2023-01-04T00:44:28;9.63;;;4.78;;
22764;SDS011;11549;50.852;3.816;2023-01-04T00:46:59;9.05;;;4.80;;
22764;SDS011;11549;50.852;3.816;2023-01-04T00:49:30;9.45;;;5.57;;
22764;SDS011;11549;50.852;3.816;2023-01-04T00:51:58;9.40;;;5.53;;
22764;SDS011;11549;50.852;3.816;2023-01-04T00:54:27;8.73;;;5.10;;
22764;SDS011;11549;50.852;3.816;2023-01-04T00:56:56;10.40;;;5.80;;
22764;SDS011;11549;50.852;3.816;2023-01-04T00:59:26;12.75;;;5.40;;
22764;SDS011;11549;50.852;3.816;2023-01-04T01:01:54;11.88;;;5.57;;
22764;SDS011;11549;50.852;3.816;2023-01-04T01:04:25;7.43;;;5.40;;
22764;SDS011;11549;50.852;3.816;2023-01-04T01:06:53;12.27;;;6.13;;
22764;SDS011;11549;50.852;3.816;2023-01-04T01:09:22;12.85;;;5.65;;
22764;SDS011;11549;50.852;3.816;2023-01-04T01:11:51;8.15;;;5.07;;
22764;SDS011;11549;50.852;3.816;2023-01-04T01:14:21;7.18;;;4.70;;
22764;SDS011;11549;50.852;3.816;2023-01-04T01:16:50;8.80;;;4.90;;
22764;SDS011;11549;50.852;3.816;2023-01-04T01:19:26;8.77;;;4.40;;
22764;SDS011;11549;50.852;3.816;2023-01-04T01:21:55;10.00;;;4.60;;
22764;SDS011;11549;50.852;3.816;2023-01-04T01:24:24;8.18;;;4.50;;
22764;SDS011;11549;50.852;3.816;2023-01-04T01:26:54;7.30;;;4.40;;
22764;SDS011;11549;50.852;3.816;2023-01-04T01:29:23;9.93;;;4.40;;
22764;SDS011;11549;50.852;3.816;2023-01-04T01:31:52;7.57;;;3.90;;
22764;SDS011;11549;50.852;3.816;2023-01-04T01:34:20;8.30;;;4.25;;
22764;SDS011;11549;50.852;3.816;2023-01-04T01:36:50;10.48;;;4.18;;
22764;SDS011;11549;50.852;3.816;2023-01-04T01:39:19;8.48;;;3.90;;
22764;SDS011;11549;50.852;3.816;2023-01-04T01:41:47;7.68;;;4.78;;
22764;SDS011;11549;50.852;3.816;2023-01-04T01:47:24;9.05;;;4.25;;
22764;SDS011;11549;50.852;3.816;2023-01-04T01:49:55;9.43;;;4.82;;
22764;SDS011;11549;50.852;3.816;2023-01-04T01:52:26;10.85;;;3.97;;
22764;SDS011;11549;50.852;3.816;2023-01-04T01:54:59;11.05;;;5.00;;
22764;SDS011;11549;50.852;3.816;2023-01-04T01:57:32;8.85;;;4.35;;
22764;SDS011;11549;50.852;3.816;2023-01-04T02:00:04;8.43;;;4.53;;
22764;SDS011;11549;50.852;3.816;2023-01-04T02:02:36;11.60;;;4.53;;
22764;SDS011;11549;50.852;3.816;2023-01-04T02:05:06;9.43;;;4.60;;
22764;SDS011;11549;50.852;3.816;2023-01-04T02:07:36;9.07;;;4.40;;
22764;SDS011;11549;50.852;3.816;2023-01-04T02:10:05;10.48;;;4.40;;
22764;SDS011;11549;50.852;3.816;2023-01-04T02:12:34;9.70;;;4.40;;
22764;SDS011;11549;50.852;3.816;2023-01-04T02:15:03;11.00;;;4.13;;
22764;SDS011;11549;50.852;3.816;2023-01-04T02:17:33;8.70;;;4.38;;
22764;SDS011;11549;50.852;3.816;2023-01-04T02:23:08;10.85;;;4.00;;
22764;SDS011;11549;50.852;3.816;2023-01-04T02:26:00;9.68;;;4.30;;
22764;SDS011;11549;50.852;3.816;2023-01-04T02:32:03;8.55;;;4.30;;
22764;SDS011;11549;50.852;3.816;2023-01-04T02:34:40;10.68;;;4.75;;
22764;SDS011;11549;50.852;3.816;2023-01-04T02:37:15;11.27;;;4.57;;
22764;SDS011;11549;50.852;3.816;2023-01-04T02:39:48;8.15;;;3.67;;
22764;SDS011;11549;50.852;3.816;2023-01-04T02:42:24;8.05;;;3.92;;
22764;SDS011;11549;50.852;3.816;2023-01-04T02:45:14;9.68;;;4.10;;
22764;SDS011;11549;50.852;3.816;2023-01-04T02:47:48;7.18;;;3.60;;
22764;SDS011;11549;50.852;3.816;2023-01-04T02:50:34;6.05;;;3.53;;
22764;SDS011;11549;50.852;3.816;2023-01-04T02:53:07;9.23;;;3.80;;
22764;SDS011;11549;50.852;3.816;2023-01-04T02:55:40;8.98;;;3.75;;
22764;SDS011;11549;50.852;3.816;2023-01-04T02:58:27;9.05;;;4.20;;
22764;SDS011;11549;50.852;3.816;2023-01-04T03:01:06;10.68;;;4.32;;
22764;SDS011;11549;50.852;3.816;2023-01-04T03:04:07;12.90;;;4.10;;
22764;SDS011;11549;50.852;3.816;2023-01-04T03:07:05;9.45;;;4.22;;
22764;SDS011;11549;50.852;3.816;2023-01-04T03:09:38;8.60;;;3.78;;
22764;SDS011;11549;50.852;3.816;2023-01-04T03:12:10;9.98;;;4.50;;
22764;SDS011;11549;50.852;3.816;2023-01-04T03:14:59;10.27;;;4.22;;
22764;SDS011;11549;50.852;3.816;2023-01-04T03:17:32;8.13;;;4.65;;
22764;SDS011;11549;50.852;3.816;2023-01-04T03:20:06;8.07;;;5.35;;
22764;SDS011;11549;50.852;3.816;2023-01-04T03:22:37;8.55;;;4.50;;
22764;SDS011;11549;50.852;3.816;2023-01-04T03:28:18;7.93;;;3.95;;
22764;SDS011;11549;50.852;3.816;2023-01-04T03:31:09;10.85;;;4.88;;
22764;SDS011;11549;50.852;3.816;2023-01-04T03:33:58;7.85;;;4.10;;
22764;SDS011;11549;50.852;3.816;2023-01-04T03:36:55;7.90;;;4.25;;
22764;SDS011;11549;50.852;3.816;2023-01-04T03:39:37;10.88;;;4.40;;
22764;SDS011;11549;50.852;3.816;2023-01-04T03:45:15;9.48;;;4.15;;
22764;SDS011;11549;50.852;3.816;2023-01-04T03:48:07;7.80;;;3.90;;
22764;SDS011;11549;50.852;3.816;2023-01-04T03:51:02;7.95;;;3.88;;
22764;SDS011;11549;50.852;3.816;2023-01-04T03:53:38;10.02;;;3.95;;
22764;SDS011;11549;50.852;3.816;2023-01-04T03:56:12;7.13;;;3.10;;
22764;SDS011;11549;50.852;3.816;2023-01-04T03:58:42;7.85;;;3.75;;
22764;SDS011;11549;50.852;3.816;2023-01-04T04:01:11;6.13;;;3.60;;
22764;SDS011;11549;50.852;3.816;2023-01-04T04:03:40;6.20;;;3.30;;
22764;SDS011;11549;50.852;3.816;2023-01-04T04:06:26;6.28;;;3.30;;
22764;SDS011;11549;50.852;3.816;2023-01-04T04:09:13;6.05;;;3.28;;
22764;SDS011;11549;50.852;3.816;2023-01-04T04:11:42;5.95;;;2.65;;
22764;SDS011;11549;50.852;3.816;2023-01-04T04:14:10;8.85;;;3.13;;
22764;SDS011;11549;50.852;3.816;2023-01-04T04:16:38;6.63;;;3.38;;
22764;SDS011;11549;50.852;3.816;2023-01-04T04:19:07;7.28;;;3.60;;
22764;SDS011;11549;50.852;3.816;2023-01-04T04:21:35;8.43;;;3.40;;
22764;SDS011;11549;50.852;3.816;2023-01-04T04:24:04;6.32;;;2.90;;
22764;SDS011;11549;50.852;3.816;2023-01-04T04:26:35;7.88;;;3.00;;
22764;SDS011;11549;50.852;3.816;2023-01-04T04:29:03;5.60;;;2.60;;
22764;SDS011;11549;50.852;3.816;2023-01-04T04:31:31;5.57;;;2.80;;
22764;SDS011;11549;50.852;3.816;2023-01-04T04:34:00;5.07;;;2.88;;
22764;SDS011;11549;50.852;3.816;2023-01-04T04:36:28;3.88;;;2.88;;
22764;SDS011;11549;50.852;3.816;2023-01-04T04:38:56;4.63;;;2.70;;
22764;SDS011;11549;50.852;3.816;2023-01-04T04:41:25;6.05;;;3.00;;
22764;SDS011;11549;50.852;3.816;2023-01-04T04:44:06;4.43;;;2.70;;
22764;SDS011;11549;50.852;3.816;2023-01-04T04:46:37;6.53;;;2.53;;
22764;SDS011;11549;50.852;3.816;2023-01-04T04:49:05;4.93;;;2.45;;
22764;SDS011;11549;50.852;3.816;2023-01-04T04:51:33;4.45;;;2.67;;
22764;SDS011;11549;50.852;3.816;2023-01-04T04:54:02;5.72;;;2.90;;
22764;SDS011;11549;50.852;3.816;2023-01-04T04:56:31;6.03;;;3.30;;
22764;SDS011;11549;50.852;3.816;2023-01-04T04:58:59;6.00;;;2.42;;
22764;SDS011;11549;50.852;3.816;2023-01-04T05:01:29;8.02;;;3.00;;
22764;SDS011;11549;50.852;3.816;2023-01-04T05:03:57;4.97;;;2.60;;
22764;SDS011;11549;50.852;3.816;2023-01-04T05:06:26;3.25;;;2.00;;
22764;SDS011;11549;50.852;3.816;2023-01-04T05:08:55;5.10;;;2.20;;
22764;SDS011;11549;50.852;3.816;2023-01-04T05:11:23;5.85;;;2.75;;
22764;SDS011;11549;50.852;3.816;2023-01-04T05:14:06;4.80;;;2.33;;
22764;SDS011;11549;50.852;3.816;2023-01-04T05:16:36;6.32;;;2.30;;
22764;SDS011;11549;50.852;3.816;2023-01-04T05:19:04;4.47;;;2.35;;
22764;SDS011;11549;50.852;3.816;2023-01-04T05:21:33;5.70;;;2.35;;
22764;SDS011;11549;50.852;3.816;2023-01-04T05:24:01;3.85;;;2.60;;
22764;SDS011;11549;50.852;3.816;2023-01-04T05:26:29;6.47;;;2.92;;
22764;SDS011;11549;50.852;3.816;2023-01-04T05:29:01;5.75;;;2.80;;
22764;SDS011;11549;50.852;3.816;2023-01-04T05:31:29;6.05;;;2.75;;
22764;SDS011;11549;50.852;3.816;2023-01-04T05:33:58;5.85;;;2.55;;
22764;SDS011;11549;50.852;3.816;2023-01-04T05:36:27;4.88;;;2.80;;
22764;SDS011;11549;50.852;3.816;2023-01-04T05:38:55;4.30;;;2.42;;
22764;SDS011;11549;50.852;3.816;2023-01-04T05:41:23;4.82;;;3.10;;
22764;SDS011;11549;50.852;3.816;2023-01-04T05:44:09;4.00;;;2.38;;
22764;SDS011;11549;50.852;3.816;2023-01-04T05:46:37;3.45;;;2.45;;
22764;SDS011;11549;50.852;3.816;2023-01-04T05:49:07;6.15;;;2.42;;
22764;SDS011;11549;50.852;3.816;2023-01-04T05:51:35;3.47;;;2.40;;
22764;SDS011;11549;50.852;3.816;2023-01-04T05:54:03;4.18;;;2.40;;
22764;SDS011;11549;50.852;3.816;2023-01-04T05:56:32;4.38;;;2.20;;
22764;SDS011;11549;50.852;3.816;2023-01-04T05:59:00;4.78;;;2.33;;
22764;SDS011;11549;50.852;3.816;2023-01-04T06:01:28;4.57;;;2.15;;
22764;SDS011;11549;50.852;3.816;2023-01-04T06:03:56;3.78;;;2.20;;
22764;SDS011;11549;50.852;3.816;2023-01-04T06:06:27;6.65;;;2.60;;
22764;SDS011;11549;50.852;3.816;2023-01-04T06:08:55;6.57;;;2.78;;
22764;SDS011;11549;50.852;3.816;2023-01-04T06:11:23;4.75;;;3.60;;
22764;SDS011;11549;50.852;3.816;2023-01-04T06:13:53;6.18;;;3.60;;
22764;SDS011;11549;50.852;3.816;2023-01-04T06:16:21;7.13;;;4.75;;
22764;SDS011;11549;50.852;3.816;2023-01-04T06:18:50;9.23;;;4.65;;
22764;SDS011;11549;50.852;3.816;2023-01-04T06:21:18;7.72;;;4.53;;
22764;SDS011;11549;50.852;3.816;2023-01-04T06:23:48;5.50;;;3.97;;
22764;SDS011;11549;50.852;3.816;2023-01-04T06:26:16;8.05;;;3.80;;
22764;SDS011;11549;50.852;3.816;2023-01-04T06:28:45;6.95;;;3.45;;
22764;SDS011;11549;50.852;3.816;2023-01-04T06:31:14;7.78;;;3.33;;
22764;SDS011;11549;50.852;3.816;2023-01-04T06:33:42;6.75;;;3.00;;
22764;SDS011;11549;50.852;3.816;2023-01-04T06:36:11;7.13;;;3.90;;
22764;SDS011;11549;50.852;3.816;2023-01-04T06:38:45;10.25;;;3.80;;
22764;SDS011;11549;50.852;3.816;2023-01-04T06:41:15;9.07;;;3.20;;
22764;SDS011;11549;50.852;3.816;2023-01-04T06:43:44;9.70;;;3.45;;
22764;SDS011;11549;50.852;3.816;2023-01-04T06:46:12;11.35;;;3.40;;
22764;SDS011;11549;50.852;3.816;2023-01-04T06:48:40;8.52;;;3.13;;
22764;SDS011;11549;50.852;3.816;2023-01-04T06:51:09;7.82;;;3.83;;
22764;SDS011;11549;50.852;3.816;2023-01-04T06:53:37;6.50;;;3.03;;
22764;SDS011;11549;50.852;3.816;2023-01-04T06:56:07;6.80;;;3.10;;
22764;SDS011;11549;50.852;3.816;2023-01-04T06:58:35;7.20;;;2.55;;
22764;SDS011;11549;50.852;3.816;2023-01-04T07:01:04;5.00;;;3.20;;
22764;SDS011;11549;50.852;3.816;2023-01-04T07:03:33;7.32;;;3.42;;
22764;SDS011;11549;50.852;3.816;2023-01-04T07:06:02;6.60;;;3.33;;
22764;SDS011;11549;50.852;3.816;2023-01-04T07:08:31;8.25;;;3.28;;
22764;SDS011;11549;50.852;3.816;2023-01-04T07:11:00;7.63;;;3.20;;
22764;SDS011;11549;50.852;3.816;2023-01-04T07:13:30;9.20;;;3.45;;
22764;SDS011;11549;50.852;3.816;2023-01-04T07:15:59;8.30;;;2.65;;
22764;SDS011;11549;50.852;3.816;2023-01-04T07:18:28;5.50;;;2.60;;
22764;SDS011;11549;50.852;3.816;2023-01-04T07:20:56;8.00;;;2.50;;
22764;SDS011;11549;50.852;3.816;2023-01-04T07:23:25;6.63;;;2.97;;
22764;SDS011;11549;50.852;3.816;2023-01-04T07:25:54;5.63;;;2.42;;
22764;SDS011;11549;50.852;3.816;2023-01-04T07:28:22;5.97;;;2.50;;
22764;SDS011;11549;50.852;3.816;2023-01-04T07:31:09;6.32;;;2.22;;
22764;SDS011;11549;50.852;3.816;2023-01-04T07:33:37;6.50;;;2.33;;
22764;SDS011;11549;50.852;3.816;2023-01-04T07:36:06;6.55;;;2.10;;
22764;SDS011;11549;50.852;3.816;2023-01-04T07:38:35;7.88;;;2.70;;
22764;SDS011;11549;50.852;3.816;2023-01-04T07:41:03;7.68;;;2.53;;
22764;SDS011;11549;50.852;3.816;2023-01-04T07:43:32;6.22;;;2.35;;
22764;SDS011;11549;50.852;3.816;2023-01-04T07:46:00;6.60;;;2.70;;
22764;SDS011;11549;50.852;3.816;2023-01-04T07:48:30;6.00;;;3.10;;
22764;SDS011;11549;50.852;3.816;2023-01-04T07:50:58;7.55;;;3.20;;
22764;SDS011;11549;50.852;3.816;2023-01-04T07:53:26;6.03;;;2.70;;
22764;SDS011;11549;50.852;3.816;2023-01-04T07:55:55;5.70;;;2.70;;
22764;SDS011;11549;50.852;3.816;2023-01-04T07:58:24;4.97;;;3.30;;
22764;SDS011;11549;50.852;3.816;2023-01-04T08:00:53;6.75;;;3.55;;
22764;SDS011;11549;50.852;3.816;2023-01-04T08:03:21;8.50;;;3.92;;
22764;SDS011;11549;50.852;3.816;2023-01-04T08:05:51;5.18;;;3.15;;
22764;SDS011;11549;50.852;3.816;2023-01-04T08:08:19;4.75;;;3.78;;
22764;SDS011;11549;50.852;3.816;2023-01-04T08:10:48;5.47;;;4.00;;
22764;SDS011;11549;50.852;3.816;2023-01-04T08:13:16;6.13;;;3.95;;
22764;SDS011;11549;50.852;3.816;2023-01-04T08:15:50;7.50;;;4.30;;
22764;SDS011;11549;50.852;3.816;2023-01-04T08:18:19;7.60;;;4.20;;
22764;SDS011;11549;50.852;3.816;2023-01-04T08:20:48;7.70;;;3.97;;
22764;SDS011;11549;50.852;3.816;2023-01-04T08:23:25;8.23;;;3.42;;
22764;SDS011;11549;50.852;3.816;2023-01-04T08:25:53;6.47;;;2.80;;
22764;SDS011;11549;50.852;3.816;2023-01-04T08:28:21;5.55;;;2.50;;
22764;SDS011;11549;50.852;3.816;2023-01-04T08:30:49;7.50;;;2.45;;
22764;SDS011;11549;50.852;3.816;2023-01-04T08:33:18;4.72;;;2.05;;
22764;SDS011;11549;50.852;3.816;2023-01-04T08:35:46;6.50;;;1.90;;
22764;SDS011;11549;50.852;3.816;2023-01-04T08:38:15;5.63;;;1.90;;
22764;SDS011;11549;50.852;3.816;2023-01-04T08:41:04;9.63;;;2.33;;
22764;SDS011;11549;50.852;3.816;2023-01-04T08:43:53;6.88;;;2.00;;
22764;SDS011;11549;50.852;3.816;2023-01-04T08:46:21;6.57;;;2.35;;
22764;SDS011;11549;50.852;3.816;2023-01-04T08:48:50;10.80;;;2.08;;
22764;SDS011;11549;50.852;3.816;2023-01-04T08:51:18;7.95;;;2.22;;
22764;SDS011;11549;50.852;3.816;2023-01-04T08:53:47;5.10;;;1.65;;
22764;SDS011;11549;50.852;3.816;2023-01-04T08:56:16;6.55;;;1.77;;
22764;SDS011;11549;50.852;3.816;2023-01-04T08:58:45;9.02;;;1.95;;
22764;SDS011;11549;50.852;3.816;2023-01-04T09:01:13;7.85;;;1.70;;
22764;SDS011;11549;50.852;3.816;2023-01-04T09:03:41;7.43;;;1.70;;
22764;SDS011;11549;50.852;3.816;2023-01-04T09:06:10;7.28;;;1.70;;
22764;SDS011;11549;50.852;3.816;2023-01-04T09:08:40;5.97;;;1.75;;
22764;SDS011;11549;50.852;3.816;2023-01-04T09:11:10;5.22;;;1.40;;
22764;SDS011;11549;50.852;3.816;2023-01-04T09:13:41;6.18;;;1.42;;
22764;SDS011;11549;50.852;3.816;2023-01-04T09:16:11;7.63;;;1.75;;
22764;SDS011;11549;50.852;3.816;2023-01-04T09:18:41;7.38;;;1.45;;
22764;SDS011;11549;50.852;3.816;2023-01-04T09:21:11;5.10;;;1.77;;
22764;SDS011;11549;50.852;3.816;2023-01-04T09:23:41;5.88;;;1.90;;
22764;SDS011;11549;50.852;3.816;2023-01-04T09:26:11;3.30;;;1.70;;
22764;SDS011;11549;50.852;3.816;2023-01-04T09:28:42;3.47;;;1.67;;
22764;SDS011;11549;50.852;3.816;2023-01-04T09:31:11;5.40;;;1.95;;
22764;SDS011;11549;50.852;3.816;2023-01-04T09:33:41;4.30;;;2.45;;
22764;SDS011;11549;50.852;3.816;2023-01-04T09:36:30;7.82;;;3.30;;
22764;SDS011;11549;50.852;3.816;2023-01-04T09:38:58;5.18;;;3.13;;
22764;SDS011;11549;50.852;3.816;2023-01-04T09:41:27;6.40;;;3.75;;
22764;SDS011;11549;50.852;3.816;2023-01-04T09:44:00;9.65;;;4.72;;
22764;SDS011;11549;50.852;3.816;2023-01-04T09:46:33;10.45;;;5.80;;
22764;SDS011;11549;50.852;3.816;2023-01-04T09:49:12;8.63;;;5.43;;
22764;SDS011;11549;50.852;3.816;2023-01-04T09:51:46;7.43;;;4.97;;
22764;SDS011;11549;50.852;3.816;2023-01-04T09:54:20;7.47;;;4.65;;
22764;SDS011;11549;50.852;3.816;2023-01-04T09:56:55;8.43;;;4.95;;
22764;SDS011;11549;50.852;3.816;2023-01-04T09:59:28;9.68;;;5.05;;
22764;SDS011;11549;50.852;3.816;2023-01-04T10:01:58;9.25;;;5.60;;
22764;SDS011;11549;50.852;3.816;2023-01-04T10:04:35;7.60;;;5.95;;
22764;SDS011;11549;50.852;3.816;2023-01-04T10:07:13;10.57;;;6.32;;
22764;SDS011;11549;50.852;3.816;2023-01-04T10:09:47;10.60;;;6.40;;
22764;SDS011;11549;50.852;3.816;2023-01-04T10:12:19;10.85;;;6.20;;
22764;SDS011;11549;50.852;3.816;2023-01-04T10:15:00;11.10;;;6.43;;
22764;SDS011;11549;50.852;3.816;2023-01-04T10:17:44;9.13;;;6.43;;
22764;SDS011;11549;50.852;3.816;2023-01-04T10:20:53;30.35;;;22.92;;
22764;SDS011;11549;50.852;3.816;2023-01-04T10:23:52;14.32;;;10.48;;
22764;SDS011;11549;50.852;3.816;2023-01-04T10:26:31;12.52;;;9.68;;
22764;SDS011;11549;50.852;3.816;2023-01-04T10:29:08;8.85;;;5.95;;
22764;SDS011;11549;50.852;3.816;2023-01-04T10:31:55;9.85;;;6.68;;
22764;SDS011;11549;50.852;3.816;2023-01-04T10:34:27;9.45;;;5.85;;
22764;SDS011;11549;50.852;3.816;2023-01-04T10:36:59;7.80;;;5.10;;
22764;SDS011;11549;50.852;3.816;2023-01-04T10:39:36;6.90;;;4.60;;
22764;SDS011;11549;50.852;3.816;2023-01-04T10:42:07;5.53;;;4.10;;
22764;SDS011;11549;50.852;3.816;2023-01-04T10:44:43;5.53;;;3.70;;
22764;SDS011;11549;50.852;3.816;2023-01-04T10:47:21;5.55;;;3.00;;
22764;SDS011;11549;50.852;3.816;2023-01-04T10:49:57;7.45;;;3.00;;
22764;SDS011;11549;50.852;3.816;2023-01-04T10:52:29;3.97;;;2.65;;
22764;SDS011;11549;50.852;3.816;2023-01-04T10:55:02;4.65;;;2.35;;
22764;SDS011;11549;50.852;3.816;2023-01-04T10:57:35;5.85;;;2.70;;
22764;SDS011;11549;50.852;3.816;2023-01-04T11:02:40;5.32;;;2.33;;
22764;SDS011;11549;50.852;3.816;2023-01-04T11:05:15;6.22;;;2.47;;
22764;SDS011;11549;50.852;3.816;2023-01-04T11:07:50;4.05;;;2.08;;
22764;SDS011;11549;50.852;3.816;2023-01-04T11:10:23;4.47;;;2.08;;
22764;SDS011;11549;50.852;3.816;2023-01-04T11:12:55;6.05;;;2.05;;
22764;SDS011;11549;50.852;3.816;2023-01-04T11:15:23;3.83;;;1.90;;
22764;SDS011;11549;50.852;3.816;2023-01-04T11:17:53;5.32;;;2.00;;
22764;SDS011;11549;50.852;3.816;2023-01-04T11:20:22;5.82;;;2.00;;
22764;SDS011;11549;50.852;3.816;2023-01-04T11:22:54;4.25;;;1.63;;
22764;SDS011;11549;50.852;3.816;2023-01-04T11:25:26;3.75;;;1.80;;
22764;SDS011;11549;50.852;3.816;2023-01-04T11:28:01;5.30;;;2.55;;
22764;SDS011;11549;50.852;3.816;2023-01-04T11:30:42;3.53;;;1.60;;
22764;SDS011;11549;50.852;3.816;2023-01-04T11:33:18;2.92;;;1.33;;
22764;SDS011;11549;50.852;3.816;2023-01-04T11:35:49;3.47;;;1.45;;
22764;SDS011;11549;50.852;3.816;2023-01-04T11:38:19;4.88;;;1.50;;
22764;SDS011;11549;50.852;3.816;2023-01-04T11:40:55;2.72;;;1.20;;
22764;SDS011;11549;50.852;3.816;2023-01-04T11:43:26;16.77;;;10.55;;
22764;SDS011;11549;50.852;3.816;2023-01-04T11:45:57;19.38;;;12.90;;
22764;SDS011;11549;50.852;3.816;2023-01-04T11:48:33;2.28;;;1.30;;
22764;SDS011;11549;50.852;3.816;2023-01-04T11:53:40;3.00;;;1.20;;
22764;SDS011;11549;50.852;3.816;2023-01-04T11:56:10;3.92;;;1.00;;
22764;SDS011;11549;50.852;3.816;2023-01-04T11:58:44;2.67;;;1.20;;
22764;SDS011;11549;50.852;3.816;2023-01-04T12:01:33;3.22;;;0.90;;
22764;SDS011;11549;50.852;3.816;2023-01-04T12:04:04;4.93;;;1.15;;
22764;SDS011;11549;50.852;3.816;2023-01-04T12:06:39;1.83;;;0.93;;
22764;SDS011;11549;50.852;3.816;2023-01-04T12:09:12;0.93;;;0.60;;
22764;SDS011;11549;50.852;3.816;2023-01-04T12:11:42;1.95;;;1.00;;
22764;SDS011;11549;50.852;3.816;2023-01-04T12:14:19;2.80;;;0.90;;
22764;SDS011;11549;50.852;3.816;2023-01-04T12:16:55;2.20;;;0.80;;
22764;SDS011;11549;50.852;3.816;2023-01-04T12:19:28;1.92;;;0.70;;
22764;SDS011;11549;50.852;3.816;2023-01-04T12:21:58;1.75;;;0.65;;
22764;SDS011;11549;50.852;3.816;2023-01-04T12:24:29;1.98;;;1.10;;
22764;SDS011;11549;50.852;3.816;2023-01-04T12:26:59;1.35;;;0.80;;
22764;SDS011;11549;50.852;3.816;2023-01-04T12:32:37;17.70;;;11.50;;
22764;SDS011;11549;50.852;3.816;2023-01-04T12:45:11;1.92;;;1.27;;
22764;SDS011;11549;50.852;3.816;2023-01-04T12:47:44;3.75;;;1.60;;
22764;SDS011;11549;50.852;3.816;2023-01-04T12:50:30;4.35;;;1.50;;
22764;SDS011;11549;50.852;3.816;2023-01-04T12:53:07;4.47;;;1.90;;
22764;SDS011;11549;50.852;3.816;2023-01-04T12:56:15;3.10;;;1.42;;
22764;SDS011;11549;50.852;3.816;2023-01-04T13:04:44;3.55;;;1.50;;
22764;SDS011;11549;50.852;3.816;2023-01-04T13:07:39;5.07;;;1.88;;
22764;SDS011;11549;50.852;3.816;2023-01-04T13:10:20;5.53;;;2.28;;
22764;SDS011;11549;50.852;3.816;2023-01-04T13:13:01;4.13;;;2.17;;
22764;SDS011;11549;50.852;3.816;2023-01-04T13:18:33;7.47;;;2.15;;
22764;SDS011;11549;50.852;3.816;2023-01-04T13:21:08;5.75;;;1.90;;
22764;SDS011;11549;50.852;3.816;2023-01-04T13:23:39;5.07;;;1.55;;
22764;SDS011;11549;50.852;3.816;2023-01-04T13:26:26;6.35;;;1.30;;
22764;SDS011;11549;50.852;3.816;2023-01-04T13:29:13;4.45;;;1.60;;
22764;SDS011;11549;50.852;3.816;2023-01-04T13:31:53;5.97;;;2.10;;
22764;SDS011;11549;50.852;3.816;2023-01-04T13:34:26;5.70;;;1.77;;
22764;SDS011;11549;50.852;3.816;2023-01-04T13:37:01;5.80;;;1.45;;
22764;SDS011;11549;50.852;3.816;2023-01-04T13:39:35;5.47;;;1.67;;
22764;SDS011;11549;50.852;3.816;2023-01-04T13:42:05;6.80;;;1.77;;
22764;SDS011;11549;50.852;3.816;2023-01-04T13:44:57;5.70;;;1.50;;
22764;SDS011;11549;50.852;3.816;2023-01-04T13:47:50;4.72;;;1.48;;
22764;SDS011;11549;50.852;3.816;2023-01-04T13:50:31;8.55;;;1.42;;
22764;SDS011;11549;50.852;3.816;2023-01-04T13:53:02;4.78;;;1.45;;
22764;SDS011;11549;50.852;3.816;2023-01-04T13:55:35;8.10;;;2.05;;
22764;SDS011;11549;50.852;3.816;2023-01-04T13:58:05;10.57;;;1.83;;
22764;SDS011;11549;50.852;3.816;2023-01-04T14:00:43;7.88;;;1.48;;
22764;SDS011;11549;50.852;3.816;2023-01-04T14:03:16;8.43;;;1.73;;
22764;SDS011;11549;50.852;3.816;2023-01-04T14:05:54;8.10;;;1.52;;
22764;SDS011;11549;50.852;3.816;2023-01-04T14:08:30;5.93;;;1.48;;
22764;SDS011;11549;50.852;3.816;2023-01-04T14:11:01;4.47;;;1.30;;
22764;SDS011;11549;50.852;3.816;2023-01-04T14:13:43;5.40;;;1.33;;
22764;SDS011;11549;50.852;3.816;2023-01-04T14:16:12;4.57;;;1.08;;
22764;SDS011;11549;50.852;3.816;2023-01-04T14:18:42;3.65;;;1.10;;
22764;SDS011;11549;50.852;3.816;2023-01-04T14:21:15;4.75;;;1.20;;
22764;SDS011;11549;50.852;3.816;2023-01-04T14:23:44;4.72;;;1.65;;
22764;SDS011;11549;50.852;3.816;2023-01-04T14:26:28;5.20;;;1.25;;
22764;SDS011;11549;50.852;3.816;2023-01-04T14:28:57;4.25;;;1.23;;
22764;SDS011;11549;50.852;3.816;2023-01-04T14:31:30;2.80;;;1.10;;
22764;SDS011;11549;50.852;3.816;2023-01-04T14:34:04;5.10;;;1.30;;
22764;SDS011;11549;50.852;3.816;2023-01-04T14:36:36;2.35;;;1.00;;
22764;SDS011;11549;50.852;3.816;2023-01-04T14:39:20;7.00;;;1.60;;
22764;SDS011;11549;50.852;3.816;2023-01-04T14:42:00;4.82;;;0.80;;
22764;SDS011;11549;50.852;3.816;2023-01-04T14:44:30;6.20;;;1.20;;
22764;SDS011;11549;50.852;3.816;2023-01-04T14:47:01;5.53;;;1.40;;
22764;SDS011;11549;50.852;3.816;2023-01-04T14:49:33;4.22;;;1.40;;
22764;SDS011;11549;50.852;3.816;2023-01-04T14:52:07;3.45;;;1.00;;
22764;SDS011;11549;50.852;3.816;2023-01-04T14:54:37;4.88;;;1.30;;
22764;SDS011;11549;50.852;3.816;2023-01-04T14:57:05;11.20;;;1.90;;
22764;SDS011;11549;50.852;3.816;2023-01-04T14:59:35;11.77;;;2.45;;
22764;SDS011;11549;50.852;3.816;2023-01-04T15:02:04;15.07;;;2.45;;
22764;SDS011;11549;50.852;3.816;2023-01-04T15:04:32;15.10;;;2.78;;
22764;SDS011;11549;50.852;3.816;2023-01-04T15:07:01;14.60;;;2.80;;
22764;SDS011;11549;50.852;3.816;2023-01-04T15:09:30;14.00;;;2.50;;
22764;SDS011;11549;50.852;3.816;2023-01-04T15:11:59;21.90;;;3.53;;
22764;SDS011;11549;50.852;3.816;2023-01-04T15:14:27;22.63;;;3.60;;
22764;SDS011;11549;50.852;3.816;2023-01-04T15:16:55;25.58;;;3.95;;
22764;SDS011;11549;50.852;3.816;2023-01-04T15:19:24;24.73;;;4.20;;
22764;SDS011;11549;50.852;3.816;2023-01-04T15:21:58;24.70;;;4.28;;
22764;SDS011;11549;50.852;3.816;2023-01-04T15:24:28;26.75;;;4.53;;
22764;SDS011;11549;50.852;3.816;2023-01-04T15:26:56;30.40;;;5.05;;
22764;SDS011;11549;50.852;3.816;2023-01-04T15:29:24;26.80;;;4.55;;
22764;SDS011;11549;50.852;3.816;2023-01-04T15:31:53;28.52;;;4.75;;
22764;SDS011;11549;50.852;3.816;2023-01-04T15:34:22;26.50;;;4.60;;
22764;SDS011;11549;50.852;3.816;2023-01-04T15:36:50;24.35;;;4.78;;
22764;SDS011;11549;50.852;3.816;2023-01-04T15:39:19;27.00;;;4.75;;
22764;SDS011;11549;50.852;3.816;2023-01-04T15:41:51;29.25;;;5.03;;
22764;SDS011;11549;50.852;3.816;2023-01-04T15:44:37;30.00;;;5.20;;
22764;SDS011;11549;50.852;3.816;2023-01-04T15:47:05;32.28;;;6.03;;
22764;SDS011;11549;50.852;3.816;2023-01-04T15:49:33;36.60;;;5.70;;
22764;SDS011;11549;50.852;3.816;2023-01-04T15:52:03;37.47;;;5.63;;
22764;SDS011;11549;50.852;3.816;2023-01-04T15:54:32;33.75;;;6.10;;
22764;SDS011;11549;50.852;3.816;2023-01-04T15:57:02;34.33;;;5.97;;
22764;SDS011;11549;50.852;3.816;2023-01-04T15:59:31;34.63;;;6.82;;
22764;SDS011;11549;50.852;3.816;2023-01-04T16:01:59;39.63;;;6.35;;